createdAt,value
2016-10-24T00:00:45.753Z,3.59
2016-10-24T00:01:45.574Z,3.77
2016-10-24T00:02:45.690Z,3.66
2016-10-24T00:03:45.656Z,3.68
2016-10-24T00:04:45.846Z,3.77
2016-10-24T00:05:47.638Z,3.77
2016-10-24T00:06:46.379Z,3.8
2016-10-24T00:07:45.896Z,3.73
2016-10-24T00:08:45.813Z,3.73
2016-10-24T00:09:45.780Z,3.8
2016-10-24T00:10:46.848Z,3.83
2016-10-24T00:11:46.246Z,3.8
2016-10-24T00:12:45.830Z,3.76
2016-10-24T00:13:46.224Z,3.74
2016-10-24T00:14:45.856Z,3.8
2016-10-24T00:15:45.717Z,3.8
2016-10-24T00:16:46.790Z,3.73
2016-10-24T00:17:46.015Z,3.68
2016-10-24T00:18:45.738Z,3.73
2016-10-24T00:19:46.263Z,3.76
2016-10-24T00:20:46.277Z,3.83
2016-10-24T00:21:46.625Z,3.95
2016-10-24T00:22:45.968Z,3.98
2016-10-24T00:23:46.235Z,4.02
2016-10-24T00:24:46.431Z,4.05
2016-10-24T00:25:46.138Z,4.08
2016-10-24T00:26:46.909Z,4.13
2016-10-24T00:27:46.454Z,4.13
2016-10-24T00:28:46.647Z,3.99
2016-10-24T00:29:46.952Z,4.14
2016-10-24T00:30:46.455Z,4.1
2016-10-24T00:31:46.124Z,4.17
2016-10-24T00:32:46.618Z,4.17
2016-10-24T00:33:46.689Z,4.17
2016-10-24T00:34:46.285Z,4.13
2016-10-24T00:35:47.426Z,4.1
2016-10-24T00:36:46.448Z,4.14
2016-10-24T00:37:46.855Z,4.32
2016-10-24T00:38:47.052Z,4.35
2016-10-24T00:39:46.571Z,4.37
2016-10-24T00:40:47.016Z,4.31
2016-10-24T00:41:46.522Z,4.3
2016-10-24T00:42:46.513Z,4.45
2016-10-24T00:43:46.555Z,4.34
2016-10-24T00:44:47.339Z,4.44
2016-10-24T00:45:46.284Z,4.42
2016-10-24T00:46:47.081Z,4.45
2016-10-24T00:47:46.758Z,4.5
2016-10-24T00:48:47.025Z,4.4
2016-10-24T00:49:46.422Z,4.5
2016-10-24T00:50:46.364Z,4.48
2016-10-24T00:51:47.579Z,4.45
2016-10-24T00:52:46.866Z,4.48
2016-10-24T00:53:46.657Z,4.44
2016-10-24T00:54:46.796Z,4.48
2016-10-24T00:55:46.837Z,4.45
2016-10-24T00:56:46.347Z,4.42
2016-10-24T00:57:46.733Z,4.41
2016-10-24T00:58:46.421Z,4.5
2016-10-24T00:59:46.999Z,4.44
2016-10-24T01:00:47.739Z,4.44
2016-10-24T01:01:46.783Z,4.44
2016-10-24T01:02:46.812Z,4.41
2016-10-24T01:03:47.290Z,4.44
2016-10-24T01:04:46.672Z,4.41
2016-10-24T01:05:46.771Z,4.41
2016-10-24T01:06:47.939Z,4.42
2016-10-24T01:07:48.355Z,4.41
2016-10-24T01:08:47.723Z,4.42
2016-10-24T01:09:46.507Z,4.4
2016-10-24T01:10:47.065Z,4.38
2016-10-24T01:11:47.066Z,4.4
2016-10-24T01:12:47.278Z,4.38
2016-10-24T01:13:47.298Z,4.5
2016-10-24T01:14:46.951Z,4.49
2016-10-24T01:15:47.186Z,4.41
2016-10-24T01:16:47.456Z,4.41
2016-10-24T01:17:46.984Z,4.4
2016-10-24T01:18:47.436Z,4.45
2016-10-24T01:19:48.598Z,4.41
2016-10-24T01:20:47.895Z,4.45
2016-10-24T01:21:47.962Z,4.34
2016-10-24T01:22:47.671Z,4.26
2016-10-24T01:23:47.931Z,4.26
2016-10-24T01:24:47.307Z,4.14
2016-10-24T01:25:47.664Z,4.16
2016-10-24T01:26:47.324Z,4.14
2016-10-24T01:27:46.973Z,4.1
2016-10-24T01:28:47.669Z,4.1
2016-10-24T01:29:48.631Z,4.06
2016-10-24T01:30:48.259Z,4.06
2016-10-24T01:31:47.414Z,4.04
2016-10-24T01:32:47.678Z,4.1
2016-10-24T01:33:47.543Z,4.13
2016-10-24T01:34:48.112Z,4.01
2016-10-24T01:35:47.323Z,4.13
2016-10-24T01:36:48.072Z,4.16
2016-10-24T01:37:47.719Z,4.22
2016-10-24T01:38:47.822Z,4.16
2016-10-24T01:39:47.485Z,4.19
2016-10-24T01:40:47.865Z,4.2
2016-10-24T01:41:48.516Z,4.16
2016-10-24T01:42:47.926Z,4.16
2016-10-24T01:43:47.273Z,4.17
2016-10-24T01:44:47.773Z,4.16
2016-10-24T01:45:47.781Z,4.17
2016-10-24T01:46:47.485Z,4.16
2016-10-24T01:47:47.717Z,4.2
2016-10-24T01:48:47.489Z,4.17
2016-10-24T01:49:48.104Z,4.32
2016-10-24T01:50:47.320Z,4.38
2016-10-24T01:51:47.603Z,4.42
2016-10-24T01:52:47.663Z,4.37
2016-10-24T01:53:48.297Z,4.45
2016-10-24T01:54:48.487Z,4.37
2016-10-24T01:55:47.649Z,4.4
2016-10-24T01:56:47.420Z,4.4
2016-10-24T01:57:48.185Z,4.32
2016-10-24T01:58:48.216Z,4.35
2016-10-24T01:59:48.271Z,4.32
2016-10-24T02:00:48.069Z,4.42
2016-10-24T02:01:47.802Z,4.44
2016-10-24T02:02:47.543Z,4.32
2016-10-24T02:03:48.570Z,4.5
2016-10-24T02:04:48.217Z,4.44
2016-10-24T02:05:48.473Z,4.37
2016-10-24T02:06:48.532Z,4.42
2016-10-24T02:07:48.536Z,4.48
2016-10-24T02:08:47.886Z,4.44
2016-10-24T02:09:47.419Z,4.42
2016-10-24T02:10:48.061Z,4.45
2016-10-24T02:11:48.143Z,4.41
2016-10-24T02:12:48.187Z,4.41
2016-10-24T02:13:48.812Z,4.4
2016-10-24T02:14:48.854Z,4.4
2016-10-24T02:15:48.588Z,4.32
2016-10-24T02:16:48.068Z,4.31
2016-10-24T02:17:47.840Z,4.31
2016-10-24T02:18:48.062Z,4.31
2016-10-24T02:19:48.383Z,4.34
2016-10-24T02:20:47.910Z,4.34
2016-10-24T02:21:48.139Z,4.28
2016-10-24T02:22:47.736Z,4.3
2016-10-24T02:23:47.910Z,4.42
2016-10-24T02:24:48.332Z,4.41
2016-10-24T02:25:48.499Z,4.44
2016-10-24T02:26:48.432Z,4.44
2016-10-24T02:27:47.993Z,4.42
2016-10-24T02:28:48.582Z,4.44
2016-10-24T02:29:48.066Z,4.4
2016-10-24T02:30:48.054Z,4.32
2016-10-24T02:31:48.633Z,4.37
2016-10-24T02:32:48.251Z,4.3
2016-10-24T02:33:48.366Z,4.23
2016-10-24T02:34:48.158Z,4.24
2016-10-24T02:35:47.892Z,4.17
2016-10-24T02:36:49.158Z,4.13
2016-10-24T02:37:49.160Z,4.1
2016-10-24T02:38:48.231Z,4.2
2016-10-24T02:39:48.802Z,4.2
2016-10-24T02:40:48.306Z,4.19
2016-10-24T02:41:48.155Z,4.12
2016-10-24T02:42:48.441Z,4.08
2016-10-24T02:43:48.678Z,4.01
2016-10-24T02:44:48.666Z,3.96
2016-10-24T02:45:49.081Z,3.92
2016-10-24T02:46:48.726Z,3.95
2016-10-24T02:47:49.068Z,4.01
2016-10-24T02:48:48.359Z,4.02
2016-10-24T02:49:49.043Z,3.99
2016-10-24T02:50:49.144Z,4.01
2016-10-24T02:51:48.669Z,3.87
2016-10-24T02:52:48.621Z,3.91
2016-10-24T02:53:48.658Z,3.86
2016-10-24T02:54:48.821Z,3.92
2016-10-24T02:55:48.201Z,3.95
2016-10-24T02:56:49.115Z,3.98
2016-10-24T02:57:48.742Z,3.98
2016-10-24T02:58:49.553Z,3.94
2016-10-24T02:59:49.298Z,3.88
2016-10-24T03:00:49.321Z,3.88
2016-10-24T03:01:49.550Z,3.91
2016-10-24T03:02:49.298Z,4.04
2016-10-24T03:03:48.468Z,4.01
2016-10-24T03:04:48.347Z,4.1
2016-10-24T03:05:48.646Z,4.12
2016-10-24T03:06:48.472Z,4.16
2016-10-24T03:07:49.586Z,4.16
2016-10-24T03:08:49.676Z,4.17
2016-10-24T03:09:48.528Z,4.17
2016-10-24T03:10:49.143Z,4.24
2016-10-24T03:11:48.451Z,4.32
2016-10-24T03:12:48.786Z,4.34
2016-10-24T03:13:48.544Z,4.38
2016-10-24T03:14:49.991Z,4.35
2016-10-24T03:15:48.729Z,4.34
2016-10-24T03:16:48.960Z,4.32
2016-10-24T03:17:48.912Z,4.34
2016-10-24T03:18:48.693Z,4.37
2016-10-24T03:19:48.882Z,4.38
2016-10-24T03:20:49.727Z,4.41
2016-10-24T03:21:49.426Z,4.42
2016-10-24T03:22:48.841Z,4.37
2016-10-24T03:23:49.028Z,4.49
2016-10-24T03:24:49.204Z,4.49
2016-10-24T03:25:49.440Z,4.44
2016-10-24T03:26:49.819Z,4.45
2016-10-24T03:27:49.606Z,4.44
2016-10-24T03:28:48.859Z,4.6
2016-10-24T03:29:49.016Z,4.49
2016-10-24T03:30:49.146Z,4.59
2016-10-24T03:31:48.715Z,4.59
2016-10-24T03:32:49.153Z,4.58
2016-10-24T03:33:49.071Z,4.62
2016-10-24T03:34:49.371Z,4.62
2016-10-24T03:35:49.929Z,4.62
2016-10-24T03:36:49.274Z,4.6
2016-10-24T03:37:49.437Z,4.59
2016-10-24T03:38:49.122Z,4.56
2016-10-24T03:39:49.827Z,4.58
2016-10-24T03:40:49.318Z,4.56
2016-10-24T03:41:49.127Z,4.58
2016-10-24T03:42:49.190Z,4.48
2016-10-24T03:43:49.273Z,4.53
2016-10-24T03:44:49.912Z,4.59
2016-10-24T03:45:49.256Z,4.55
2016-10-24T03:46:49.572Z,4.49
2016-10-24T03:47:49.019Z,4.56
2016-10-24T03:48:49.038Z,4.52
2016-10-24T03:49:49.855Z,4.6
2016-10-24T03:50:49.621Z,4.52
2016-10-24T03:51:51.031Z,4.48
2016-10-24T03:52:49.349Z,4.6
2016-10-24T03:53:49.523Z,4.44
2016-10-24T03:54:49.224Z,4.55
2016-10-24T03:55:49.282Z,4.56
2016-10-24T03:56:49.912Z,4.58
2016-10-24T03:57:49.833Z,4.55
2016-10-24T03:58:49.354Z,4.53
2016-10-24T03:59:49.977Z,4.56
2016-10-24T04:00:49.470Z,4.5
2016-10-24T04:01:49.833Z,4.5
2016-10-24T04:02:50.113Z,4.58
2016-10-24T04:03:49.890Z,4.52
2016-10-24T04:04:50.564Z,4.48
2016-10-24T04:05:50.461Z,4.55
2016-10-24T04:06:49.995Z,4.56
2016-10-24T04:07:49.416Z,4.5
2016-10-24T04:08:49.306Z,4.52
2016-10-24T04:09:49.979Z,4.52
2016-10-24T04:11:50.632Z,4.6
2016-10-24T04:12:50.488Z,4.45
2016-10-24T04:13:50.388Z,4.53
2016-10-24T04:14:50.174Z,4.55
2016-10-24T04:15:50.613Z,4.6
2016-10-24T04:16:51.441Z,4.58
2016-10-24T04:17:51.068Z,4.53
2016-10-24T04:18:51.086Z,4.56
2016-10-24T04:19:50.627Z,4.55
2016-10-24T04:20:51.008Z,4.53
2016-10-24T04:21:51.671Z,4.58
2016-10-24T04:22:49.848Z,4.59
2016-10-24T04:23:50.814Z,4.56
2016-10-24T04:24:49.874Z,4.56
2016-10-24T04:25:50.511Z,4.56
2016-10-24T04:26:51.164Z,4.55
2016-10-24T04:27:50.242Z,4.49
2016-10-24T04:28:51.137Z,4.5
2016-10-24T04:29:50.688Z,4.53
2016-10-24T04:30:50.712Z,4.63
2016-10-24T04:31:50.550Z,4.73
2016-10-24T04:32:51.037Z,4.67
2016-10-24T04:33:51.280Z,4.71
2016-10-24T04:34:50.721Z,4.77
2016-10-24T04:35:49.955Z,4.68
2016-10-24T04:36:51.197Z,4.68
2016-10-24T04:37:50.824Z,4.71
2016-10-24T04:38:50.693Z,4.68
2016-10-24T04:39:50.800Z,4.7
2016-10-24T04:40:51.212Z,4.78
2016-10-24T04:41:50.631Z,4.67
2016-10-24T04:42:51.196Z,4.74
2016-10-24T04:43:50.679Z,4.71
2016-10-24T04:44:50.577Z,4.7
2016-10-24T04:45:51.559Z,4.74
2016-10-24T04:46:50.004Z,4.7
2016-10-24T04:47:50.634Z,4.71
2016-10-24T04:48:50.497Z,4.7
2016-10-24T04:49:50.556Z,4.7
2016-10-24T04:50:50.542Z,4.7
2016-10-24T04:51:50.244Z,4.71
2016-10-24T04:52:50.532Z,4.71
2016-10-24T04:53:50.457Z,4.67
2016-10-24T04:54:50.742Z,4.67
2016-10-24T04:55:51.174Z,4.67
2016-10-24T04:56:50.399Z,4.73
2016-10-24T04:57:51.903Z,4.73
2016-10-24T04:58:51.244Z,4.68
2016-10-24T04:59:50.837Z,4.74
2016-10-24T05:00:50.591Z,4.84
2016-10-24T05:01:50.590Z,4.87
2016-10-24T05:02:50.916Z,4.87
2016-10-24T05:03:50.718Z,4.89
2016-10-24T05:04:50.926Z,4.89
2016-10-24T05:05:50.965Z,4.86
2016-10-24T05:06:50.829Z,4.82
2016-10-24T05:07:51.805Z,4.8
2016-10-24T05:08:51.089Z,4.87
2016-10-24T05:11:52.877Z,4.9
2016-10-24T05:20:51.861Z,4.99
2016-10-24T05:21:52.250Z,4.96
2016-10-24T05:22:51.381Z,4.99
2016-10-24T05:23:51.321Z,4.96
2016-10-24T05:24:51.725Z,4.97
2016-10-24T05:25:50.713Z,4.89
2016-10-24T05:26:50.912Z,5.02
2016-10-24T05:27:51.287Z,4.99
2016-10-24T05:28:51.178Z,4.94
2016-10-24T05:29:51.976Z,5.05
2016-10-24T05:30:51.177Z,5
2016-10-24T05:31:51.786Z,5.11
2016-10-24T05:32:51.188Z,5.14
2016-10-24T05:33:51.962Z,5.11
2016-10-24T05:34:52.306Z,5.08
2016-10-24T05:35:51.731Z,5.18
2016-10-24T05:36:51.561Z,5.1
2016-10-24T05:37:51.823Z,5.07
2016-10-24T05:38:51.980Z,5.18
2016-10-24T05:39:52.585Z,5.18
2016-10-24T05:40:53.178Z,5.12
2016-10-24T05:41:51.226Z,5.2
2016-10-24T05:42:51.722Z,5.21
2016-10-24T05:43:52.185Z,5.15
2016-10-24T05:44:51.717Z,5.14
2016-10-24T05:45:52.196Z,5.12
2016-10-24T05:46:51.781Z,5.2
2016-10-24T05:47:52.203Z,5.11
2016-10-24T05:48:51.840Z,5.12
2016-10-24T05:49:52.614Z,5.07
2016-10-24T05:50:52.611Z,5.14
2016-10-24T05:51:51.602Z,5.15
2016-10-24T05:52:51.610Z,5.14
2016-10-24T05:53:52.179Z,5.17
2016-10-24T05:54:52.034Z,5.2
2016-10-24T05:55:52.709Z,5.23
2016-10-24T05:56:51.751Z,5.2
2016-10-24T05:57:51.876Z,5.23
2016-10-24T05:58:52.771Z,5.25
2016-10-24T05:59:52.192Z,5.23
2016-10-24T06:00:52.557Z,5.26
2016-10-24T06:01:51.958Z,5.29
2016-10-24T06:02:52.126Z,5.25
2016-10-24T06:03:51.885Z,5.33
2016-10-24T06:04:51.687Z,5.28
2016-10-24T06:05:51.802Z,5.25
2016-10-24T06:06:53.582Z,5.18
2016-10-24T06:07:52.665Z,5.23
2016-10-24T06:08:51.878Z,5.21
2016-10-24T06:09:52.188Z,5.23
2016-10-24T06:10:51.562Z,5.26
2016-10-24T06:11:52.815Z,5.11
2016-10-24T06:12:53.054Z,5.23
2016-10-24T06:13:52.032Z,5.12
2016-10-24T06:14:54.078Z,5.12
2016-10-24T06:15:53.149Z,5.14
2016-10-24T06:16:51.615Z,5.14
2016-10-24T06:17:53.358Z,5.1
2016-10-24T06:18:52.322Z,5.12
